Wednesday, February 20, 2019, 2:41 PM EST
Back to Local

KIPT, Williamsport-lycoming County

Location: Montoursville, PA, United States Lat: 41.25
Local Time: 2:41 PM EST (19:41 GMT) Lon: -76.917
Time Zone: US/Eastern Elev: 528 ft

Show me the last for .
Show Decoded

2019-02-20 14:10 METAR KIPT 201910Z 07009KT 050V110 1SM -SN BR OVC016 M03/M05 A3034 RMK AO2
                 UPB1857E00SNE1857B00 P0002 T10281050 =
2019-02-20 13:54 METAR KIPT 201854Z 06010KT 3/4SM -SN VV015 M03/M06 A3035 RMK AO2
                 UPB33E39SNE33B39 SLP284 P0005 T10281056 =
2019-02-20 13:44 METAR KIPT 201844Z 06010KT 1SM -SN BR VV015 M03/M06 A3035 RMK AO2
                 UPB33E39SNE33B39 P0005 T10331056 $ =
2019-02-20 13:25 METAR KIPT 201825Z 07010KT 3/4SM -SN BR VV011 M03/M05 A3036 RMK AO2 P0003
                 T10331050 $ =
2019-02-20 12:54 METAR KIPT 201754Z 09007KT 1/2SM -SN FZFG VV009 M03/M06 A3037 RMK AO2 SLP293
                 P0005 60022 T10331056 11022 21039 56041 $ =
2019-02-20 12:43 METAR KIPT 201743Z 07007KT 1/2SM -SN FZFG VV009 M03/M05 A3038 RMK AO2 P0004
                 T10331050 $ =
2019-02-20 12:33 METAR KIPT 201733Z 08010KT 1/4SM SN FZFG VV009 M03/M06 A3039 RMK AO2 P0003
                 T10331056 $ =
2019-02-20 12:23 METAR KIPT 201723Z 09009G18KT 1/2SM -SN FZFG VV012 M03/M06 A3039 RMK AO2 P0002
                 T10331056 $ =
2019-02-20 12:13 METAR KIPT 201713Z 07007KT 3/4SM -SN VV016 M03/M06 A3039 RMK AO2 PRESFR P0001
                 T10281056 $ =
2019-02-20 11:54 METAR KIPT 201654Z 13008G15KT 100V180 1 1/2SM -SN FEW014 BKN020 OVC033 M03/M06
                 A3042 RMK AO2 SLP308 P0005 T10281061 $ =
2019-02-20 11:44 METAR KIPT 201644Z 10007KT 070V130 1SM -SN FEW011 OVC016 M03/M06 A3043 RMK AO2
                 P0005 T10281056 $ =
2019-02-20 11:35 METAR KIPT 201635Z VRB05G16KT 1/2SM -SN FZFG VV011 M03/M06 A3044 RMK AO2 P0005
                 T10331056 $ =
2019-02-20 11:20 METAR KIPT 201620Z 10009G17KT 1/2SM SN FZFG VV009 M03/M06 A3044 RMK AO2 P0004
                 T10331056 =
2019-02-20 10:54 METAR KIPT 201554Z 06012KT 1/4SM SN FZFG VV007 M04/M06 A3044 RMK AO2 PRESFR
                 SLP314 P0011 T10391061 =
2019-02-20 10:16 METAR KIPT 201516Z 08008KT 1/4SM SN FZFG VV007 M04/M06 A3048 RMK AO2 P0004
                 T10391061 =
2019-02-20 10:07 METAR KIPT 201507Z 09007KT 1/4SM +SN VV010 M04/M07 A3048 RMK AO2 P0002 T10391067
                 =
2019-02-20 09:54 METAR KIPT 201454Z 07008KT 3/4SM -SN VV014 M04/M07 A3049 RMK AO2 SNB27 SLP334
                 P0001 60001 T10391072 58000 =
2019-02-20 09:40 METAR KIPT 201440Z 09010G16KT 3/4SM -SN VV019 M03/M08 A3049 RMK AO2 SNB27 P0001
                 T10331078 =
2019-02-20 09:30 METAR KIPT 201430Z 09010G16KT 1 1/2SM -SN OVC026 M03/M09 A3050 RMK AO2 SNB27
                 P0000 T10281089 =
2019-02-20 08:54 METAR KIPT 201354Z 06006KT 10SM OVC050 M02/M11 A3051 RMK AO2 SLP338 T10221111 =
2019-02-20 07:54 METAR KIPT 201254Z 06006KT 10SM BKN090 OVC100 M03/M12 A3050 RMK AO2 SLP337
                 T10281117 =
2019-02-20 06:54 METAR KIPT 201154Z 08004KT 10SM SCT120 M03/M11 A3050 RMK AO2 SLP334 T10331111
                 11033 21044 55013 =
2019-02-20 05:54 METAR KIPT 201054Z AUTO 08005KT 10SM CLR M04/M11 A3048 RMK AO2 SLP329 T10391106
                 =
2019-02-20 04:54 METAR KIPT 200954Z AUTO 07003KT 10SM CLR M04/M11 A3052 RMK AO2 SLP344 T10391111
                 =
2019-02-20 03:54 METAR KIPT 200854Z AUTO 08005KT 10SM CLR M04/M11 A3053 RMK AO2 SLP347 T10391106
                 58006 =
2019-02-20 02:54 METAR KIPT 200754Z AUTO 02003KT 10SM CLR M04/M11 A3056 RMK AO2 SLP357 T10441106
                 =
2019-02-20 01:54 METAR KIPT 200654Z AUTO 00000KT 10SM CLR M04/M11 A3056 RMK AO2 SLP357 T10441111
                 =
2019-02-20 00:54 METAR KIPT 200554Z AUTO 36003KT 10SM CLR M04/M11 A3055 RMK AO2 SLP354 T10441111
                 11028 21044 55007 =
2019-02-19 23:54 METAR KIPT 200454Z AUTO 01003KT 10SM CLR M04/M12 A3055 RMK AO2 SLP352 T10391117
                 400171083 =
2019-02-19 22:54 METAR KIPT 200354Z AUTO 00000KT 10SM CLR M03/M11 A3056 RMK AO2 SLP354 T10331111
                 =
2019-02-19 21:54 METAR KIPT 200254Z 00000KT 10SM CLR M03/M11 A3057 RMK AO2 SLP362 T10331111 58006
                 =
2019-02-19 20:54 METAR KIPT 200154Z 00000KT 10SM CLR M03/M11 A3058 RMK AO2 SLP364 T10331106 =
2019-02-19 19:54 METAR KIPT 200054Z 00000KT 10SM CLR M03/M10 A3059 RMK AO2 SLP368 T10331100 =
2019-02-19 18:54 METAR KIPT 192354Z 17003KT 10SM CLR M03/M11 A3059 RMK AO2 SLP368 T10281106 10017
                 21028 53013 =
2019-02-19 17:54 METAR KIPT 192254Z 36004KT 10SM CLR M01/M16 A3055 RMK AO2 SLP355 T10061156 =
2019-02-19 16:54 METAR KIPT 192154Z 25003KT 10SM CLR 00/M15 A3055 RMK AO2 SLP353 T00001150 =
2019-02-19 15:54 METAR KIPT 192054Z VRB05KT 10SM CLR 01/M17 A3056 RMK AO2 SLP354 T00061167 56017
                 =
2019-02-19 14:54 METAR KIPT 191954Z VRB03KT 10SM CLR 01/M16 A3057 RMK AO2 SLP358 T00061156 =

Support USWX by starting your Amazon purchase here.